Time;durP1;ratioP1;P1;durP2;ratioP2;P2;SDS_P1;SDS_P2;PMS_P1;PMS_P2;Temp;Humidity;BMP_temperature;BMP_pressure;BME280_temperature;BME280_humidity;BME280_pressure;Samples;Min_cycle;Max_cycle;Signal;HPM_P1;HPM_P2
2023/07/27 00:00:07;;;;;;;2.63;1.80;;;22.10;48.90;;;;;;5055427;28;20815;-72
2023/07/27 00:05:46;;;;;;;3.43;2.30;;;22.10;48.80;;;;;;5048167;28;20454;-73
2023/07/27 00:08:35;;;;;;;1.70;1.60;;;22.20;49.10;;;;;;5032566;28;20459;-74
2023/07/27 00:11:15;;;;;;;2.97;2.03;;;22.10;48.90;;;;;;5038248;28;20423;-72
2023/07/27 00:13:51;;;;;;;2.43;2.23;;;22.10;48.80;;;;;;5064360;28;21029;-73
2023/07/27 00:16:26;;;;;;;1.70;1.60;;;22.20;49.00;;;;;;5038854;28;20500;-73
2023/07/27 00:18:59;;;;;;;1.80;1.57;;;22.10;48.80;;;;;;5041569;28;20526;-73
2023/07/27 00:21:42;;;;;;;2.80;2.40;;;22.10;48.90;;;;;;5057145;28;20485;-73
2023/07/27 00:24:22;;;;;;;2.03;1.73;;;22.10;48.60;;;;;;5049211;28;20463;-73
2023/07/27 00:27:16;;;;;;;2.60;1.97;;;22.10;48.70;;;;;;5044070;28;20832;-73
2023/07/27 00:29:57;;;;;;;2.40;2.20;;;22.10;48.80;;;;;;5051864;28;20447;-72
2023/07/27 00:32:37;;;;;;;2.13;1.93;;;22.10;48.60;;;;;;5064169;28;20474;-73
2023/07/27 00:35:17;;;;;;;2.40;1.93;;;22.10;48.60;;;;;;5053628;28;20465;-73
2023/07/27 00:37:59;;;;;;;2.80;2.60;;;22.10;48.70;;;;;;5059277;28;20430;-74
2023/07/27 00:40:52;;;;;;;1.90;1.77;;;22.10;48.60;;;;;;5051379;28;20587;-73
2023/07/27 00:43:28;;;;;;;1.97;1.77;;;22.10;48.30;;;;;;5060113;28;20488;-74
2023/07/27 00:46:07;;;;;;;3.83;2.30;;;22.10;48.40;;;;;;5056121;28;20864;-73
2023/07/27 00:48:47;;;;;;;2.33;2.13;;;22.10;48.40;;;;;;5051195;28;20943;-73
2023/07/27 00:51:28;;;;;;;2.50;2.30;;;22.10;48.30;;;;;;5082652;28;20420;-73
2023/07/27 00:54:18;;;;;;;2.80;2.03;;;22.10;48.30;;;;;;5043550;28;20858;-73
2023/07/27 00:57:01;;;;;;;3.40;1.73;;;22.10;48.50;;;;;;5033241;28;20972;-74
2023/07/27 00:59:49;;;;;;;2.63;2.20;;;22.10;48.40;;;;;;5076540;28;20949;-74
2023/07/27 01:02:25;;;;;;;3.43;1.87;;;22.10;48.50;;;;;;5049619;28;20722;-73
2023/07/27 01:05:04;;;;;;;2.43;2.23;;;22.10;48.30;;;;;;5040236;28;20478;-73
2023/07/27 01:07:45;;;;;;;2.30;2.10;;;22.10;48.50;;;;;;5035297;28;20429;-73
2023/07/27 01:10:37;;;;;;;3.40;2.27;;;22.10;48.40;;;;;;5038789;28;20978;-72
2023/07/27 01:13:27;;;;;;;1.87;1.67;;;22.10;48.40;;;;;;5016394;28;20823;-73
2023/07/27 01:16:16;;;;;;;2.70;2.43;;;22.10;48.50;;;;;;5056721;28;20424;-73
2023/07/27 01:19:10;;;;;;;2.07;1.90;;;22.10;48.10;;;;;;5033502;28;20594;-73
2023/07/27 01:22:07;;;;;;;1.90;1.70;;;22.10;48.30;;;;;;5053095;28;20534;-71
2023/07/27 01:25:14;;;;;;;2.63;2.00;;;22.10;48.50;;;;;;5053843;28;20565;-74
2023/07/27 01:28:17;;;;;;;2.30;2.10;;;22.10;48.30;;;;;;5032273;28;20535;-72
2023/07/27 01:31:01;;;;;;;2.37;2.17;;;22.10;48.20;;;;;;5054476;28;20431;-73
2023/07/27 01:33:44;;;;;;;2.90;1.90;;;22.10;48.30;;;;;;5052219;28;21008;-72
2023/07/27 01:36:24;;;;;;;2.47;2.27;;;22.10;48.60;;;;;;5050875;28;20851;-73
2023/07/27 01:39:02;;;;;;;1.87;1.50;;;22.10;48.40;;;;;;5029674;28;20497;-73
2023/07/27 01:41:41;;;;;;;3.80;2.53;;;22.10;48.40;;;;;;5044850;28;20459;-72
2023/07/27 01:44:14;;;;;;;2.27;2.07;;;22.10;48.30;;;;;;5039799;28;20987;-73
2023/07/27 01:46:55;;;;;;;2.27;2.00;;;22.10;48.50;;;;;;5043194;28;20433;-73
2023/07/27 01:49:40;;;;;;;2.30;2.10;;;22.10;48.50;;;;;;5042665;28;20442;-73
2023/07/27 01:52:15;;;;;;;2.17;1.97;;;22.10;48.60;;;;;;5041997;28;20493;-73
2023/07/27 01:55:00;;;;;;;1.83;1.73;;;22.10;48.70;;;;;;5044543;28;20932;-73
2023/07/27 01:57:40;;;;;;;2.43;2.20;;;22.10;48.90;;;;;;5074391;28;20437;-72
2023/07/27 02:00:17;;;;;;;1.73;1.63;;;22.10;48.80;;;;;;5042024;28;20443;-73
2023/07/27 02:03:16;;;;;;;2.30;1.93;;;22.10;48.90;;;;;;5040262;28;20466;-73
2023/07/27 02:06:00;;;;;;;2.27;2.07;;;22.10;48.90;;;;;;5061705;28;20422;-73
2023/07/27 02:08:35;;;;;;;2.50;1.87;;;22.10;48.90;;;;;;5063512;28;20572;-71
2023/07/27 02:11:13;;;;;;;2.50;1.80;;;22.10;48.90;;;;;;5053877;28;20458;-73
2023/07/27 02:14:04;;;;;;;2.80;2.50;;;22.10;49.00;;;;;;5084915;28;20468;-74
2023/07/27 02:16:46;;;;;;;2.50;1.80;;;22.10;49.10;;;;;;5059837;28;20441;-73
2023/07/27 02:19:34;;;;;;;1.60;1.50;;;22.10;49.10;;;;;;5091926;28;20553;-72
2023/07/27 02:22:35;;;;;;;2.47;2.27;;;22.10;49.20;;;;;;5096493;28;20505;-73
2023/07/27 02:25:14;;;;;;;3.87;2.17;;;22.10;49.40;;;;;;5060104;28;20461;-73
2023/07/27 02:27:50;;;;;;;2.13;1.93;;;22.10;49.30;;;;;;5061229;28;20730;-73
2023/07/27 02:30:28;;;;;;;2.20;1.90;;;22.10;49.40;;;;;;5041224;28;20512;-73
2023/07/27 02:33:11;;;;;;;2.90;2.60;;;22.10;49.30;;;;;;5049780;28;20468;-74
2023/07/27 02:36:03;;;;;;;2.47;2.10;;;22.10;49.50;;;;;;5041895;28;20945;-74
2023/07/27 02:39:01;;;;;;;1.97;1.73;;;22.10;49.60;;;;;;5058622;28;20454;-73
2023/07/27 02:41:39;;;;;;;2.30;2.00;;;22.10;49.80;;;;;;5056778;28;20439;-73
2023/07/27 02:45:00;;;;;;;2.17;2.00;;;22.10;49.70;;;;;;5059373;28;20510;-74
2023/07/27 02:47:50;;;;;;;1.87;1.70;;;22.10;49.80;;;;;;5060943;28;20446;-73
2023/07/27 02:50:32;;;;;;;3.43;2.40;;;22.00;49.90;;;;;;5056380;28;20439;-74
2023/07/27 02:56:45;;;;;;;2.73;2.20;;;22.00;50.00;;;;;;5058055;28;20462;-74
2023/07/27 02:59:21;;;;;;;1.83;1.70;;;22.00;50.00;;;;;;5048665;28;20457;-73
2023/07/27 03:02:09;;;;;;;2.60;1.60;;;22.00;50.20;;;;;;5055987;28;20489;-74
2023/07/27 03:05:16;;;;;;;2.60;1.80;;;22.00;50.10;;;;;;5077109;28;20450;-74
2023/07/27 03:12:04;;;;;;;1.77;1.60;;;22.10;50.20;;;;;;5052315;28;20440;-73
2023/07/27 03:14:43;;;;;;;2.77;1.67;;;22.10;50.20;;;;;;5072666;28;21090;-74
2023/07/27 03:17:36;;;;;;;1.67;1.50;;;22.00;50.20;;;;;;5075436;28;20961;-74
2023/07/27 03:20:31;;;;;;;2.33;2.13;;;22.00;50.40;;;;;;5079956;28;21006;-72
2023/07/27 03:23:22;;;;;;;1.87;1.73;;;22.00;50.50;;;;;;5053982;28;20989;-73
2023/07/27 03:26:13;;;;;;;3.60;2.40;;;22.00;50.50;;;;;;5064677;28;20952;-73
2023/07/27 03:29:11;;;;;;;2.87;1.87;;;22.00;50.80;;;;;;5058734;28;20460;-72
2023/07/27 03:32:15;;;;;;;2.10;1.40;;;22.00;51.00;;;;;;5064492;28;20437;-73
2023/07/27 03:34:57;;;;;;;1.90;1.60;;;22.00;51.20;;;;;;5073687;28;20589;-73
2023/07/27 03:37:44;;;;;;;3.90;2.13;;;22.00;50.90;;;;;;5049506;28;20464;-73
2023/07/27 03:40:31;;;;;;;1.97;1.73;;;22.00;50.90;;;;;;5031481;28;20445;-73
2023/07/27 03:43:18;;;;;;;2.30;1.80;;;22.00;50.80;;;;;;5035364;28;20507;-73
2023/07/27 03:45:59;;;;;;;2.20;1.97;;;22.00;51.30;;;;;;5061133;28;20436;-73
2023/07/27 03:48:32;;;;;;;2.50;2.10;;;22.00;51.10;;;;;;5052117;28;20493;-73
2023/07/27 03:51:10;;;;;;;2.33;1.60;;;22.00;51.30;;;;;;5038942;28;20434;-73
2023/07/27 03:53:51;;;;;;;2.20;1.70;;;22.00;51.30;;;;;;5072087;28;20469;-73
2023/07/27 03:56:39;;;;;;;2.53;1.90;;;21.90;51.10;;;;;;5061128;28;20446;-73
2023/07/27 03:59:22;;;;;;;1.87;1.70;;;22.00;51.20;;;;;;5069325;28;20886;-73
2023/07/27 04:02:02;;;;;;;2.40;2.20;;;22.00;51.20;;;;;;5065980;28;20435;-73
2023/07/27 04:04:42;;;;;;;3.03;2.33;;;22.00;51.10;;;;;;5044321;28;20478;-73
2023/07/27 04:07:39;;;;;;;2.10;1.90;;;22.00;51.40;;;;;;5082243;28;20466;-72
2023/07/27 04:10:14;;;;;;;2.40;2.10;;;22.00;51.20;;;;;;5084810;28;20442;-71
2023/07/27 04:12:54;;;;;;;3.90;2.03;;;22.00;51.20;;;;;;5068933;28;20600;-74
2023/07/27 04:15:57;;;;;;;2.63;2.20;;;21.90;51.80;;;;;;5039665;28;20652;-72
2023/07/27 04:18:34;;;;;;;2.20;2.00;;;21.90;51.70;;;;;;5062136;28;20489;-72
2023/07/27 04:21:18;;;;;;;2.13;1.93;;;21.90;51.80;;;;;;5050845;28;20475;-73
2023/07/27 04:23:55;;;;;;;2.13;1.90;;;21.90;51.90;;;;;;5043556;28;20490;-73
2023/07/27 04:26:39;;;;;;;1.90;1.80;;;21.90;52.20;;;;;;5067760;28;20503;-74
2023/07/27 04:29:13;;;;;;;2.07;1.80;;;21.90;52.10;;;;;;5024122;28;20593;-72
2023/07/27 04:31:46;;;;;;;3.17;1.80;;;21.90;52.20;;;;;;5038383;28;21144;-73
2023/07/27 04:34:24;;;;;;;2.63;2.13;;;21.90;52.00;;;;;;5064805;28;21007;-73
2023/07/27 04:37:06;;;;;;;2.10;1.90;;;21.90;52.20;;;;;;5067093;28;20437;-73
2023/07/27 04:39:45;;;;;;;2.80;2.50;;;21.90;51.90;;;;;;5080567;28;20442;-73
2023/07/27 04:42:18;;;;;;;4.83;1.77;;;21.90;52.30;;;;;;5048131;28;20904;-73
2023/07/27 04:44:56;;;;;;;3.63;2.40;;;21.90;52.10;;;;;;5037699;28;20445;-73
2023/07/27 04:47:40;;;;;;;1.90;1.67;;;21.80;52.40;;;;;;5052225;28;20813;-73
2023/07/27 04:50:24;;;;;;;3.13;2.30;;;21.80;52.40;;;;;;5082593;28;20517;-74
2023/07/27 04:53:12;;;;;;;2.57;1.80;;;21.80;52.10;;;;;;5078908;28;20454;-73
2023/07/27 05:01:52;;;;;;;3.17;2.00;;;21.80;53.00;;;;;;5064735;28;20430;-72
2023/07/27 05:07:23;;;;;;;3.37;1.90;;;21.80;52.60;;;;;;5065841;28;20453;-72
2023/07/27 05:09:54;;;;;;;2.40;2.00;;;21.80;52.70;;;;;;5069391;28;20453;-72
2023/07/27 05:12:32;;;;;;;3.20;2.10;;;21.80;52.90;;;;;;5027689;28;20504;-72
2023/07/27 05:15:29;;;;;;;2.93;2.20;;;21.80;53.30;;;;;;5059996;28;20830;-72
2023/07/27 05:18:33;;;;;;;3.47;1.63;;;21.80;52.90;;;;;;5033370;28;20458;-72
2023/07/27 05:21:13;;;;;;;2.43;2.23;;;21.80;53.30;;;;;;5048797;28;20439;-72
2023/07/27 05:23:48;;;;;;;2.70;2.00;;;21.80;53.20;;;;;;5028240;28;20471;-72
2023/07/27 05:26:29;;;;;;;2.87;2.30;;;21.80;53.20;;;;;;5049256;28;20831;-70
2023/07/27 05:29:03;;;;;;;2.13;1.93;;;21.70;53.10;;;;;;5014617;28;20570;-72
2023/07/27 05:31:40;;;;;;;2.43;2.23;;;21.80;52.80;;;;;;5047835;28;20970;-72
2023/07/27 05:34:35;;;;;;;2.67;1.90;;;21.80;53.10;;;;;;5047210;28;20556;-72
2023/07/27 05:37:20;;;;;;;1.97;1.70;;;21.80;53.30;;;;;;5038495;28;20905;-72
2023/07/27 05:40:01;;;;;;;2.40;1.87;;;21.80;53.00;;;;;;5036166;28;20573;-73
2023/07/27 05:42:44;;;;;;;1.70;1.60;;;21.70;53.30;;;;;;5066188;28;20561;-71
2023/07/27 05:45:24;;;;;;;2.10;1.90;;;21.80;53.10;;;;;;5055857;28;20454;-72
2023/07/27 05:48:06;;;;;;;2.63;1.97;;;21.80;52.80;;;;;;5053664;28;20472;-71
2023/07/27 05:50:42;;;;;;;2.20;1.80;;;21.80;52.70;;;;;;5030874;28;20467;-72
2023/07/27 05:53:20;;;;;;;2.60;1.47;;;21.80;52.50;;;;;;5057456;28;20791;-73
2023/07/27 05:56:10;;;;;;;2.63;1.80;;;21.80;52.40;;;;;;5069034;28;20434;-72
2023/07/27 05:58:46;;;;;;;2.00;1.67;;;21.80;52.80;;;;;;5017610;28;21011;-72
2023/07/27 06:01:20;;;;;;;1.77;1.67;;;21.80;53.10;;;;;;5043082;28;20858;-72
2023/07/27 06:03:54;;;;;;;1.83;1.70;;;21.80;52.80;;;;;;5061478;28;20874;-72
2023/07/27 06:06:46;;;;;;;3.47;1.50;;;21.80;52.60;;;;;;5043518;28;20439;-72
2023/07/27 06:09:29;;;;;;;1.83;1.57;;;21.80;53.50;;;;;;5052327;28;20472;-72
2023/07/27 06:12:11;;;;;;;2.03;1.63;;;21.80;53.20;;;;;;5059274;28;20707;-72
2023/07/27 06:14:51;;;;;;;1.57;1.43;;;21.80;53.10;;;;;;5065167;28;20536;-73
2023/07/27 06:17:37;;;;;;;4.43;1.90;;;21.80;52.80;;;;;;5071222;28;20452;-72
2023/07/27 06:20:14;;;;;;;1.53;1.43;;;21.80;52.90;;;;;;5043820;28;20442;-71
2023/07/27 06:22:59;;;;;;;1.47;1.37;;;21.80;52.70;;;;;;5059711;28;20462;-73
2023/07/27 06:25:37;;;;;;;2.00;1.43;;;21.80;52.90;;;;;;5057915;28;21012;-72
2023/07/27 06:28:30;;;;;;;1.50;1.40;;;21.80;53.30;;;;;;5050912;28;20472;-71
2023/07/27 06:31:14;;;;;;;1.60;1.30;;;21.80;53.20;;;;;;5075744;28;20523;-71
2023/07/27 06:33:56;;;;;;;2.17;1.60;;;21.80;53.10;;;;;;5046445;28;20479;-72
2023/07/27 06:36:38;;;;;;;1.80;1.50;;;21.80;52.90;;;;;;5037352;28;20491;-71
2023/07/27 06:39:28;;;;;;;1.80;1.50;;;21.80;53.50;;;;;;5059788;28;20944;-73
2023/07/27 06:42:24;;;;;;;2.00;1.80;;;21.80;53.20;;;;;;5026138;28;20436;-73
2023/07/27 06:45:31;;;;;;;1.77;1.60;;;21.80;53.20;;;;;;5037504;28;20462;-72
2023/07/27 06:48:16;;;;;;;1.67;1.40;;;21.70;52.70;;;;;;5025861;28;20987;-72
2023/07/27 06:54:09;;;;;;;1.50;1.30;;;21.70;53.00;;;;;;5021984;28;20479;-72
2023/07/27 06:56:48;;;;;;;1.93;1.57;;;21.70;53.60;;;;;;5025926;28;20533;-72
2023/07/27 06:59:25;;;;;;;2.13;1.77;;;21.70;53.40;;;;;;5036863;28;20472;-72
2023/07/27 07:02:14;;;;;;;2.13;1.40;;;21.70;53.40;;;;;;5040756;28;20444;-71
2023/07/27 07:04:54;;;;;;;1.70;1.60;;;21.70;53.50;;;;;;5061240;28;20466;-72
2023/07/27 07:07:38;;;;;;;1.37;1.27;;;21.70;53.20;;;;;;5026643;28;21068;-72
2023/07/27 07:13:26;;;;;;;1.50;1.40;;;21.70;53.30;;;;;;5064117;28;20473;-73
2023/07/27 07:19:34;;;;;;;1.40;1.10;;;21.70;52.80;;;;;;5035412;28;20486;-71
2023/07/27 07:22:23;;;;;;;1.40;1.20;;;21.70;52.80;;;;;;5072845;28;20808;-72
2023/07/27 07:25:14;;;;;;;1.97;1.53;;;21.70;52.80;;;;;;5039300;28;20458;-72
2023/07/27 07:27:59;;;;;;;1.20;1.10;;;21.70;53.50;;;;;;5068548;28;20995;-72
2023/07/27 07:33:43;;;;;;;2.10;1.30;;;21.70;53.50;;;;;;5042447;28;22868;-72
2023/07/27 07:37:03;;;;;;;1.50;1.03;;;21.70;54.60;;;;;;5043891;28;20482;-72
2023/07/27 07:39:54;;;;;;;2.47;1.00;;;21.70;54.20;;;;;;5029300;28;20495;-72
2023/07/27 07:42:37;;;;;;;1.60;1.40;;;21.70;55.80;;;;;;5056714;28;20442;-72
2023/07/27 07:45:19;;;;;;;2.03;1.47;;;21.70;54.00;;;;;;5042613;28;20797;-72
2023/07/27 07:47:57;;;;;;;1.93;1.00;;;21.70;53.70;;;;;;5029682;28;20431;-72
2023/07/27 07:50:36;;;;;;;1.60;1.30;;;21.70;53.70;;;;;;5016976;28;20444;-73
2023/07/27 07:53:23;;;;;;;1.50;1.40;;;21.70;53.70;;;;;;5038439;28;20508;-71
2023/07/27 07:59:02;;;;;;;1.17;1.03;;;21.70;54.10;;;;;;5047779;28;21012;-71
2023/07/27 08:01:43;;;;;;;1.83;1.40;;;21.70;54.40;;;;;;5073314;28;20451;-71
2023/07/27 08:04:20;;;;;;;1.70;1.27;;;21.60;54.00;;;;;;5023926;28;20502;-71
2023/07/27 08:07:01;;;;;;;1.77;1.10;;;21.60;54.00;;;;;;5050042;28;20510;-71
2023/07/27 08:09:56;;;;;;;1.60;1.13;;;21.60;53.70;;;;;;5042757;28;20681;-72
2023/07/27 08:12:50;;;;;;;1.47;1.00;;;21.60;54.80;;;;;;5038366;28;20466;-72
2023/07/27 08:15:39;;;;;;;1.67;1.30;;;21.70;53.80;;;;;;5047902;28;20882;-72
2023/07/27 08:18:38;;;;;;;2.80;1.33;;;21.60;53.70;;;;;;5033710;28;20482;-72
2023/07/27 08:21:32;;;;;;;1.30;1.20;;;21.60;54.70;;;;;;5026073;28;20447;-73
2023/07/27 08:24:17;;;;;;;1.37;1.10;;;21.60;54.20;;;;;;5026884;28;20563;-72
2023/07/27 08:27:04;;;;;;;2.07;1.20;;;21.60;54.30;;;;;;5049925;28;20443;-71
2023/07/27 08:33:16;;;;;;;1.20;1.00;;;21.60;54.10;;;;;;5053968;28;20554;-72
2023/07/27 08:36:16;;;;;;;2.00;1.73;;;21.60;55.30;;;;;;5076415;28;20524;-72
2023/07/27 08:41:53;;;;;;;1.77;1.53;;;21.60;55.30;;;;;;5072880;28;20967;-73
2023/07/27 08:44:36;;;;;;;1.50;1.10;;;21.60;55.00;;;;;;5038677;28;20483;-71
2023/07/27 08:47:19;;;;;;;1.43;1.13;;;21.60;55.50;;;;;;5072573;28;20440;-72
2023/07/27 08:49:56;;;;;;;1.70;1.40;;;21.60;54.60;;;;;;5064521;28;20442;-72
2023/07/27 08:52:25;;;;;;;1.50;1.10;;;21.60;55.20;;;;;;5052257;28;20553;-71
2023/07/27 08:54:54;;;;;;;1.90;1.20;;;21.60;55.90;;;;;;5054326;28;20475;-72
2023/07/27 08:57:23;;;;;;;1.33;1.23;;;21.60;55.60;;;;;;5045974;28;20438;-72
2023/07/27 08:59:53;;;;;;;1.73;1.33;;;21.50;55.50;;;;;;5043275;28;20598;-71
2023/07/27 09:02:22;;;;;;;1.87;1.27;;;21.50;55.50;;;;;;5045527;28;20470;-71
2023/07/27 09:04:51;;;;;;;1.20;0.90;;;21.50;56.00;;;;;;5044055;28;20468;-73
2023/07/27 09:07:19;;;;;;;1.63;1.20;;;21.60;56.40;;;;;;5037132;28;20450;-72
2023/07/27 09:09:52;;;;;;;2.40;1.23;;;21.50;56.00;;;;;;5068819;28;20906;-72
2023/07/27 09:12:22;;;;;;;1.73;1.37;;;21.50;55.80;;;;;;5045341;28;20476;-72
2023/07/27 09:14:52;;;;;;;1.47;1.27;;;21.50;56.80;;;;;;5033111;28;20484;-72
2023/07/27 09:17:20;;;;;;;1.67;1.50;;;21.60;56.70;;;;;;5048549;28;21030;-72
2023/07/27 09:19:52;;;;;;;1.83;1.50;;;21.50;56.60;;;;;;5046426;28;20566;-72
2023/07/27 09:22:20;;;;;;;2.13;1.43;;;21.50;56.30;;;;;;5035416;28;20498;-72
2023/07/27 09:24:49;;;;;;;1.40;1.10;;;21.50;56.20;;;;;;5046502;28;20519;-71
2023/07/27 09:27:17;;;;;;;1.63;1.00;;;21.50;55.90;;;;;;5031766;28;20525;-72
2023/07/27 09:29:46;;;;;;;1.67;1.33;;;21.50;56.20;;;;;;5047048;28;20641;-71
2023/07/27 09:32:16;;;;;;;1.40;1.23;;;21.50;56.90;;;;;;5071668;28;20842;-71
2023/07/27 09:34:45;;;;;;;1.30;0.97;;;21.50;56.70;;;;;;5034643;28;20557;-71
2023/07/27 09:37:14;;;;;;;1.73;1.30;;;21.50;56.40;;;;;;5036241;28;20823;-72
2023/07/27 09:39:43;;;;;;;1.57;1.17;;;21.50;56.70;;;;;;5054360;28;20454;-72
2023/07/27 09:42:14;;;;;;;2.70;1.53;;;21.50;56.20;;;;;;5034202;28;20449;-72
2023/07/27 09:44:48;;;;;;;1.80;0.83;;;21.50;56.70;;;;;;5059057;28;21050;-72
2023/07/27 09:47:23;;;;;;;1.57;1.10;;;21.50;56.30;;;;;;5056069;28;20470;-72
2023/07/27 09:49:55;;;;;;;1.20;0.93;;;21.50;56.70;;;;;;5027623;28;20443;-72
2023/07/27 09:52:25;;;;;;;1.90;1.30;;;21.50;55.70;;;;;;5069535;28;20555;-72
2023/07/27 09:54:57;;;;;;;1.50;1.20;;;21.50;56.20;;;;;;5038492;28;20454;-71
2023/07/27 09:57:26;;;;;;;1.40;1.20;;;21.50;56.40;;;;;;5042707;28;20461;-73
2023/07/27 09:59:55;;;;;;;1.53;1.20;;;21.50;57.00;;;;;;5064982;28;20861;-71
2023/07/27 10:02:26;;;;;;;1.40;1.20;;;21.50;56.80;;;;;;5029874;28;20468;-72
2023/07/27 10:05:00;;;;;;;1.53;1.00;;;21.50;57.60;;;;;;5054309;28;20463;-72
2023/07/27 10:07:29;;;;;;;1.57;0.90;;;21.50;57.00;;;;;;5059657;28;20449;-72
2023/07/27 10:10:35;;;;;;;1.47;1.03;;;21.40;57.40;;;;;;5033369;28;20450;-72
2023/07/27 10:13:07;;;;;;;1.60;1.20;;;21.40;58.00;;;;;;5056292;28;20506;-72
2023/07/27 10:15:41;;;;;;;1.10;0.80;;;21.40;57.20;;;;;;5057987;28;20488;-72
2023/07/27 10:18:14;;;;;;;1.40;1.00;;;21.40;57.40;;;;;;5038651;28;20482;-72
2023/07/27 10:20:43;;;;;;;1.57;1.03;;;21.40;57.40;;;;;;5061016;28;20426;-72
2023/07/27 10:23:17;;;;;;;1.70;0.93;;;21.40;56.80;;;;;;5045161;28;20450;-72
2023/07/27 10:26:02;;;;;;;1.23;0.90;;;21.40;56.90;;;;;;5056911;28;20958;-72
2023/07/27 10:28:33;;;;;;;1.07;0.80;;;21.40;57.20;;;;;;5038657;28;20626;-73
2023/07/27 10:31:19;;;;;;;1.70;1.23;;;21.40;57.40;;;;;;5053077;28;20469;-71
2023/07/27 10:33:54;;;;;;;1.33;1.00;;;21.40;56.90;;;;;;5041636;28;20528;-71
2023/07/27 10:36:56;;;;;;;1.63;1.07;;;21.50;57.60;;;;;;5057424;28;20443;-71
2023/07/27 10:39:29;;;;;;;2.00;1.00;;;21.40;57.10;;;;;;5040770;28;20479;-73
2023/07/27 10:42:03;;;;;;;1.37;1.07;;;21.40;57.90;;;;;;5076294;28;20516;-71
2023/07/27 10:44:45;;;;;;;1.33;0.87;;;21.40;58.20;;;;;;5070292;28;20453;-71
2023/07/27 10:47:16;;;;;;;2.27;1.10;;;21.40;58.10;;;;;;5032466;28;20899;-72
2023/07/27 10:49:48;;;;;;;1.50;1.13;;;21.40;57.80;;;;;;5051127;28;20436;-72
2023/07/27 10:52:18;;;;;;;1.50;0.97;;;21.40;57.80;;;;;;5049180;28;20513;-72
2023/07/27 10:54:48;;;;;;;0.90;0.67;;;21.40;58.20;;;;;;5048482;28;20470;-71
2023/07/27 10:57:19;;;;;;;1.33;0.80;;;21.40;58.00;;;;;;5062914;28;20476;-72
2023/07/27 10:59:49;;;;;;;1.40;0.93;;;21.40;58.30;;;;;;5046710;28;20460;-72
2023/07/27 11:02:20;;;;;;;3.20;1.40;;;21.40;58.30;;;;;;5059839;28;20989;-73
2023/07/27 11:04:53;;;;;;;1.73;1.10;;;21.40;58.10;;;;;;5054722;28;20512;-73
2023/07/27 11:07:29;;;;;;;2.10;1.10;;;21.40;58.60;;;;;;5051680;28;20470;-72
2023/07/27 11:10:03;;;;;;;1.60;1.20;;;21.40;58.60;;;;;;5072916;28;20529;-73
2023/07/27 11:12:46;;;;;;;2.10;1.00;;;21.40;59.00;;;;;;5056185;28;20526;-72
2023/07/27 11:15:19;;;;;;;1.50;1.10;;;21.40;58.60;;;;;;5053716;28;20478;-72
2023/07/27 11:17:48;;;;;;;1.03;0.73;;;21.40;58.90;;;;;;5063660;28;20489;-72
2023/07/27 11:20:21;;;;;;;1.43;1.03;;;21.40;59.30;;;;;;5034915;28;20455;-72
2023/07/27 11:22:51;;;;;;;1.57;1.17;;;21.40;59.10;;;;;;5081292;28;20458;-71
2023/07/27 11:25:19;;;;;;;1.97;1.10;;;21.40;59.50;;;;;;5051876;28;20570;-71
2023/07/27 11:27:49;;;;;;;1.40;1.17;;;21.40;59.90;;;;;;5078502;28;20560;-71
2023/07/27 11:30:21;;;;;;;1.67;1.03;;;21.40;60.00;;;;;;5080460;28;20985;-73
2023/07/27 11:32:58;;;;;;;1.37;1.00;;;21.40;59.70;;;;;;5052420;28;20442;-71
2023/07/27 11:35:29;;;;;;;1.37;0.80;;;21.40;60.20;;;;;;5056420;28;20939;-71
2023/07/27 11:37:58;;;;;;;1.30;1.03;;;21.40;60.10;;;;;;5057989;28;20490;-73
2023/07/27 11:40:27;;;;;;;1.50;1.00;;;21.40;60.10;;;;;;5050500;28;20559;-71
2023/07/27 11:42:56;;;;;;;1.30;0.70;;;21.40;59.40;;;;;;5070330;28;20434;-73
2023/07/27 11:45:26;;;;;;;1.40;0.90;;;21.40;59.90;;;;;;5103320;28;20610;-72
2023/07/27 11:47:54;;;;;;;1.27;0.80;;;21.40;60.20;;;;;;5072926;28;20497;-73
2023/07/27 11:50:24;;;;;;;1.77;1.17;;;21.40;60.20;;;;;;5044700;28;20450;-72
2023/07/27 11:52:59;;;;;;;1.03;0.70;;;21.40;59.90;;;;;;5035999;28;20441;-71
2023/07/27 11:55:33;;;;;;;1.80;1.10;;;21.40;60.00;;;;;;5034309;28;20498;-71
2023/07/27 11:58:04;;;;;;;1.10;0.80;;;21.40;59.90;;;;;;5046534;28;20862;-73
2023/07/27 12:00:33;;;;;;;1.40;0.83;;;21.40;60.00;;;;;;5058441;28;20448;-70
2023/07/27 12:03:02;;;;;;;1.53;0.70;;;21.40;60.00;;;;;;5035615;28;20470;-71
2023/07/27 12:05:54;;;;;;;1.30;1.00;;;21.40;60.70;;;;;;5046748;28;20433;-73
2023/07/27 12:08:24;;;;;;;1.43;0.90;;;21.40;60.10;;;;;;5042890;28;20503;-71
2023/07/27 12:10:57;;;;;;;1.10;0.70;;;21.40;60.60;;;;;;5036051;28;20457;-72
2023/07/27 12:13:29;;;;;;;1.30;0.80;;;21.40;61.20;;;;;;5053485;28;20476;-73
2023/07/27 12:16:02;;;;;;;1.40;0.87;;;21.40;60.40;;;;;;5046191;28;20428;-72
2023/07/27 12:18:34;;;;;;;1.30;0.70;;;21.40;61.00;;;;;;5045089;28;20478;-71
2023/07/27 12:21:06;;;;;;;1.13;0.80;;;21.40;60.60;;;;;;5055145;28;20984;-73
2023/07/27 12:23:39;;;;;;;1.50;0.80;;;21.40;61.30;;;;;;5046275;28;21007;-72
2023/07/27 12:26:09;;;;;;;1.20;0.83;;;21.40;60.50;;;;;;5038378;28;20457;-72
2023/07/27 12:28:41;;;;;;;2.00;1.10;;;21.40;60.70;;;;;;5046491;28;20450;-71
2023/07/27 12:31:11;;;;;;;1.10;0.70;;;21.40;62.00;;;;;;5047363;28;20441;-72
2023/07/27 12:33:42;;;;;;;1.53;0.70;;;21.40;61.00;;;;;;5050377;28;20489;-73
2023/07/27 12:36:11;;;;;;;1.23;0.63;;;21.40;61.10;;;;;;5049989;28;20565;-72
2023/07/27 12:38:42;;;;;;;1.07;0.73;;;21.40;60.90;;;;;;5027849;28;20517;-72
2023/07/27 12:41:14;;;;;;;1.43;0.63;;;21.40;60.30;;;;;;5044141;28;20436;-70
2023/07/27 12:43:43;;;;;;;1.80;1.00;;;21.40;60.40;;;;;;5046445;28;20873;-71
2023/07/27 12:46:13;;;;;;;1.53;1.03;;;21.40;60.20;;;;;;5025735;28;20435;-71
2023/07/27 12:48:41;;;;;;;1.07;0.63;;;21.40;60.80;;;;;;5024872;28;20505;-71
2023/07/27 12:51:10;;;;;;;2.03;0.80;;;21.40;61.10;;;;;;5029414;28;20494;-72
2023/07/27 12:53:39;;;;;;;1.50;1.10;;;21.40;61.60;;;;;;5028567;28;20463;-72
2023/07/27 12:56:11;;;;;;;2.60;0.73;;;21.40;60.80;;;;;;5024826;28;20530;-72
2023/07/27 12:58:40;;;;;;;1.27;0.80;;;21.40;61.00;;;;;;5020903;28;20464;-73
2023/07/27 13:01:09;;;;;;;1.10;0.70;;;21.40;61.20;;;;;;5044725;28;20451;-73
2023/07/27 13:03:37;;;;;;;1.20;0.80;;;21.40;61.60;;;;;;5029808;28;20479;-72
2023/07/27 13:06:06;;;;;;;1.10;0.80;;;21.40;61.50;;;;;;5041896;28;20443;-72
2023/07/27 13:08:35;;;;;;;1.30;0.70;;;21.40;61.00;;;;;;5040678;28;21016;-72
2023/07/27 13:11:04;;;;;;;1.47;0.73;;;21.40;61.50;;;;;;5042480;28;20929;-72
2023/07/27 13:13:34;;;;;;;3.40;0.90;;;21.40;62.20;;;;;;5046083;28;20493;-73
2023/07/27 13:16:02;;;;;;;1.10;0.50;;;21.40;61.80;;;;;;5043698;28;20447;-72
2023/07/27 13:18:31;;;;;;;2.23;1.23;;;21.40;62.40;;;;;;5020216;28;21010;-72
2023/07/27 13:21:01;;;;;;;1.87;0.80;;;21.40;62.80;;;;;;5027984;28;20439;-73
2023/07/27 13:23:30;;;;;;;1.00;0.57;;;21.40;63.30;;;;;;5042888;28;20944;-73
2023/07/27 13:26:05;;;;;;;1.40;0.70;;;21.40;62.50;;;;;;5040588;28;20771;-73
2023/07/27 13:28:35;;;;;;;1.73;0.70;;;21.40;62.40;;;;;;5047070;28;20473;-71
2023/07/27 13:31:05;;;;;;;1.60;0.90;;;21.40;61.70;;;;;;5039196;28;20450;-71
2023/07/27 13:33:34;;;;;;;1.30;0.80;;;21.40;62.00;;;;;;5039910;28;20906;-72
2023/07/27 13:36:02;;;;;;;1.10;0.60;;;21.40;62.20;;;;;;5062708;28;20546;-67
2023/07/27 13:38:31;;;;;;;1.30;0.67;;;21.40;62.00;;;;;;5028348;28;20524;-68
2023/07/27 13:40:59;;;;;;;1.53;0.97;;;21.40;61.70;;;;;;5045398;28;20773;-67
2023/07/27 13:43:28;;;;;;;1.87;0.70;;;21.40;62.20;;;;;;5032705;28;20465;-66
2023/07/27 13:45:58;;;;;;;1.60;1.00;;;21.40;63.30;;;;;;5049561;28;20522;-68
2023/07/27 13:48:28;;;;;;;1.20;0.60;;;21.40;61.70;;;;;;5042230;28;20683;-68
2023/07/27 13:50:57;;;;;;;1.20;0.67;;;21.40;62.40;;;;;;5041885;28;20828;-67
2023/07/27 13:53:25;;;;;;;1.13;0.57;;;21.40;61.90;;;;;;5048439;28;20597;-67
2023/07/27 13:55:54;;;;;;;1.33;0.73;;;21.40;62.70;;;;;;5026865;28;20451;-67
2023/07/27 13:58:23;;;;;;;1.20;0.63;;;21.40;61.80;;;;;;5048465;28;20469;-66
2023/07/27 14:00:54;;;;;;;1.00;0.50;;;21.40;61.30;;;;;;5030991;28;20450;-68
2023/07/27 14:03:24;;;;;;;1.07;0.67;;;21.40;61.60;;;;;;5029801;28;20506;-68
2023/07/27 14:05:57;;;;;;;1.27;0.80;;;21.40;62.60;;;;;;5056312;28;20786;-66
2023/07/27 14:08:26;;;;;;;1.00;0.50;;;21.40;61.80;;;;;;5035247;28;20537;-68
2023/07/27 14:10:55;;;;;;;1.07;0.80;;;21.40;61.70;;;;;;5046586;28;20443;-67
2023/07/27 14:13:23;;;;;;;1.30;0.80;;;21.40;61.60;;;;;;5031815;28;20562;-67
2023/07/27 14:15:52;;;;;;;1.20;0.70;;;21.40;61.60;;;;;;5064997;28;20475;-67
2023/07/27 14:18:21;;;;;;;1.20;0.80;;;21.40;62.10;;;;;;5052873;28;20474;-67
2023/07/27 14:20:51;;;;;;;1.60;0.80;;;21.40;61.80;;;;;;5041188;28;20452;-68
2023/07/27 14:23:20;;;;;;;1.20;0.60;;;21.40;61.80;;;;;;5046901;28;20566;-66
2023/07/27 14:25:53;;;;;;;1.23;0.70;;;21.40;61.90;;;;;;5043036;28;20452;-66
2023/07/27 14:28:22;;;;;;;1.00;0.60;;;21.40;61.60;;;;;;5051548;28;20476;-68